createdAt,value
2023-01-05T00:01:42.732Z,84.35
2023-01-05T00:04:12.810Z,84.09
2023-01-05T00:06:40.886Z,83.56
2023-01-05T00:09:09.975Z,83.77
2023-01-05T00:11:55.145Z,83.61
2023-01-05T00:14:43.774Z,83.53
2023-01-05T00:17:30.411Z,83.35
2023-01-05T00:20:15.674Z,83.54
2023-01-05T00:22:47.643Z,83.60
2023-01-05T00:25:17.958Z,83.64
2023-01-05T00:27:48.051Z,83.61
2023-01-05T00:30:20.039Z,82.94
2023-01-05T00:32:48.476Z,83.37
2023-01-05T00:35:17.244Z,83.32
2023-01-05T00:37:45.264Z,83.03
2023-01-05T00:40:15.161Z,82.83
2023-01-05T00:42:43.119Z,82.41
2023-01-05T00:45:13.620Z,82.70
2023-01-05T00:47:43.066Z,82.91
2023-01-05T00:50:13.829Z,83.29
2023-01-05T00:52:41.959Z,83.07
2023-01-05T00:55:09.989Z,82.86
2023-01-05T00:57:37.708Z,82.84
2023-01-05T01:00:06.734Z,82.49
2023-01-05T01:02:34.467Z,82.10
2023-01-05T01:05:03.572Z,82.14
2023-01-05T01:07:31.268Z,81.87
2023-01-05T01:09:58.873Z,81.62
2023-01-05T01:12:26.488Z,81.41
2023-01-05T01:14:54.110Z,81.17
2023-01-05T01:17:21.836Z,81.25
2023-01-05T01:19:49.562Z,81.15
2023-01-05T01:22:18.564Z,80.93
2023-01-05T01:24:46.160Z,80.76
2023-01-05T01:27:13.891Z,80.55
2023-01-05T01:29:41.600Z,80.54
2023-01-05T01:32:09.215Z,80.53
2023-01-05T01:34:37.031Z,80.69
2023-01-05T01:37:04.670Z,80.90
2023-01-05T01:39:33.832Z,81.13
2023-01-05T01:42:01.379Z,81.10
2023-01-05T01:44:53.642Z,81.76
2023-01-05T01:47:33.896Z,81.17
2023-01-05T01:50:05.131Z,81.19
2023-01-05T01:52:33.898Z,80.97
2023-01-05T01:55:05.285Z,81.63
2023-01-05T01:57:34.677Z,82.27
2023-01-05T02:00:03.887Z,83.07
2023-01-05T02:02:31.543Z,82.62
2023-01-05T02:05:04.341Z,83.18
2023-01-05T02:07:35.191Z,82.48
2023-01-05T02:10:06.462Z,82.58
2023-01-05T02:12:41.986Z,82.51
2023-01-05T02:15:22.792Z,82.87
2023-01-05T02:18:05.377Z,83.04
2023-01-05T02:20:49.150Z,83.39
2023-01-05T02:23:45.211Z,83.58
2023-01-05T02:26:28.077Z,83.89
2023-01-05T02:29:19.919Z,84.09
2023-01-05T02:31:52.325Z,83.85
2023-01-05T02:34:24.221Z,83.64
2023-01-05T02:36:57.903Z,83.97
2023-01-05T02:39:32.236Z,84.70
2023-01-05T02:42:04.074Z,85.03
2023-01-05T02:44:34.639Z,85.01
2023-01-05T02:47:05.864Z,85.53
2023-01-05T02:49:41.675Z,85.94
2023-01-05T02:52:11.974Z,85.97
2023-01-05T02:54:44.797Z,86.23
2023-01-05T02:57:17.873Z,86.00
2023-01-05T02:59:48.693Z,86.69
2023-01-05T03:02:22.223Z,86.96
2023-01-05T03:04:55.649Z,87.68
2023-01-05T03:07:27.113Z,88.07
2023-01-05T03:09:54.883Z,88.21
2023-01-05T03:12:42.709Z,88.83
2023-01-05T03:15:18.678Z,88.07
2023-01-05T03:17:50.989Z,88.20
2023-01-05T03:20:23.661Z,86.78
2023-01-05T03:23:11.184Z,87.16
2023-01-05T03:25:57.499Z,86.35
2023-01-05T03:28:49.079Z,85.40
2023-01-05T03:31:41.830Z,84.48
2023-01-05T03:34:35.352Z,83.74
2023-01-05T03:37:08.826Z,84.07
2023-01-05T03:39:39.377Z,83.88
2023-01-05T03:42:09.559Z,83.14
2023-01-05T03:44:38.496Z,82.98
2023-01-05T03:47:08.732Z,81.87
2023-01-05T03:49:38.483Z,81.45
2023-01-05T03:52:06.381Z,80.82
2023-01-05T03:54:34.002Z,80.66
2023-01-05T03:57:01.654Z,80.27
2023-01-05T03:59:29.308Z,80.22
2023-01-05T04:01:57.036Z,79.95
2023-01-05T04:04:24.804Z,78.46
2023-01-05T04:06:53.761Z,78.88
2023-01-05T04:09:21.355Z,78.95
2023-01-05T04:11:48.987Z,79.12
2023-01-05T04:14:16.643Z,79.02
2023-01-05T04:16:44.288Z,78.84
2023-01-05T04:19:11.990Z,78.83
2023-01-05T04:21:39.574Z,78.86
2023-01-05T04:24:11.058Z,78.92
2023-01-05T04:26:39.278Z,78.95
2023-01-05T04:29:07.139Z,79.12
2023-01-05T04:31:34.752Z,79.08
2023-01-05T04:34:02.547Z,78.97
2023-01-05T04:36:30.166Z,78.83
2023-01-05T04:38:57.739Z,79.18
2023-01-05T04:41:26.703Z,78.38
2023-01-05T04:43:54.306Z,78.18
2023-01-05T04:46:21.998Z,78.46
2023-01-05T04:48:49.716Z,77.65
2023-01-05T04:51:17.317Z,77.40
2023-01-05T04:53:44.878Z,77.12
2023-01-05T04:56:12.513Z,76.87
2023-01-05T04:58:41.444Z,76.45
2023-01-05T05:01:09.156Z,75.88
2023-01-05T05:03:36.882Z,76.12
2023-01-05T05:06:04.832Z,75.36
2023-01-05T05:08:32.458Z,75.42
2023-01-05T05:11:00.711Z,75.05
2023-01-05T05:13:28.328Z,75.12
2023-01-05T05:15:57.269Z,74.72
2023-01-05T05:18:25.307Z,74.50
2023-01-05T05:20:54.251Z,74.93
2023-01-05T05:23:22.226Z,74.62
2023-01-05T05:25:51.369Z,74.96
2023-01-05T05:28:19.238Z,75.16
2023-01-05T05:30:47.034Z,75.18
2023-01-05T05:33:15.920Z,75.37
2023-01-05T05:35:43.567Z,75.19
2023-01-05T05:38:11.175Z,75.52
2023-01-05T05:40:38.778Z,76.44
2023-01-05T05:43:06.408Z,76.44
2023-01-05T05:45:34.012Z,76.25
2023-01-05T05:48:02.179Z,76.31
2023-01-05T05:50:31.152Z,77.13
2023-01-05T05:52:58.773Z,76.68
2023-01-05T05:55:26.372Z,76.12
2023-01-05T05:57:53.972Z,76.97
2023-01-05T06:00:21.610Z,77.45
2023-01-05T06:02:49.416Z,78.20
2023-01-05T06:05:17.087Z,77.92
2023-01-05T06:07:46.140Z,77.89
2023-01-05T06:10:13.712Z,78.35
2023-01-05T06:12:41.572Z,78.21
2023-01-05T06:15:10.741Z,78.24
2023-01-05T06:17:38.377Z,77.94
2023-01-05T06:20:07.330Z,77.95
2023-01-05T06:22:35.045Z,77.71
2023-01-05T06:25:04.700Z,78.24
2023-01-05T06:27:32.392Z,78.73
2023-01-05T06:29:59.956Z,79.24
2023-01-05T06:32:27.623Z,79.50
2023-01-05T06:34:55.227Z,79.80
2023-01-05T06:37:22.912Z,80.76
2023-01-05T06:39:50.626Z,81.17
2023-01-05T06:42:23.374Z,81.47
2023-01-05T06:44:51.376Z,81.72
2023-01-05T06:47:19.479Z,81.83
2023-01-05T06:49:47.146Z,81.65
2023-01-05T06:52:16.819Z,81.75
2023-01-05T06:54:44.926Z,81.98
2023-01-05T06:57:12.527Z,82.23
2023-01-05T06:59:41.484Z,81.38
2023-01-05T07:04:56.172Z,81.00
2023-01-05T07:07:23.949Z,80.56
2023-01-05T07:09:51.580Z,80.80
2023-01-05T07:12:19.394Z,79.65
2023-01-05T07:14:52.891Z,78.53
2023-01-05T07:17:23.376Z,77.95
2023-01-05T07:19:51.005Z,77.42
2023-01-05T07:22:18.647Z,77.33
2023-01-05T07:24:46.255Z,77.14
2023-01-05T07:27:13.859Z,75.99
2023-01-05T07:29:41.487Z,76.20
2023-01-05T07:32:10.681Z,75.96
2023-01-05T07:34:38.221Z,75.40
2023-01-05T07:37:05.873Z,75.62
2023-01-05T07:39:33.486Z,75.54
2023-01-05T07:42:01.199Z,75.23
2023-01-05T07:44:28.804Z,74.94
2023-01-05T07:46:56.342Z,75.28
2023-01-05T07:49:25.505Z,74.36
2023-01-05T07:51:53.084Z,74.66
2023-01-05T07:54:21.473Z,74.74
2023-01-05T07:56:49.121Z,74.55
2023-01-05T07:59:16.877Z,74.22
2023-01-05T08:01:44.488Z,74.57
2023-01-05T08:04:12.317Z,74.06
2023-01-05T08:06:41.248Z,74.58
2023-01-05T08:09:22.807Z,74.68
2023-01-05T08:11:50.413Z,73.80
2023-01-05T08:14:17.252Z,74.28
2023-01-05T08:16:44.932Z,73.62
2023-01-05T08:19:12.939Z,73.28
2023-01-05T08:21:41.935Z,73.13
2023-01-05T08:24:09.807Z,73.96
2023-01-05T08:26:37.501Z,73.25
2023-01-05T08:29:05.308Z,73.09
2023-01-05T08:31:37.171Z,72.88
2023-01-05T08:34:05.944Z,73.62
2023-01-05T08:36:33.873Z,72.70
2023-01-05T08:39:03.207Z,72.58
2023-01-05T08:41:33.234Z,72.90
2023-01-05T08:44:03.484Z,73.02
2023-01-05T08:46:34.124Z,73.63
2023-01-05T08:49:03.648Z,73.24
2023-01-05T08:51:31.983Z,73.18
2023-01-05T08:54:00.135Z,73.19
2023-01-05T08:56:34.634Z,73.10
2023-01-05T08:59:05.888Z,72.99
2023-01-05T09:01:33.742Z,73.38
2023-01-05T09:04:01.424Z,73.09
2023-01-05T09:06:29.258Z,73.07
2023-01-05T09:08:57.220Z,73.12
2023-01-05T09:11:26.219Z,72.87
2023-01-05T09:13:57.026Z,72.87
2023-01-05T09:17:05.724Z,73.30
2023-01-05T09:19:15.993Z,73.04
2023-01-05T09:21:44.486Z,72.94
2023-01-05T09:24:13.305Z,72.58
2023-01-05T09:26:41.459Z,72.27
2023-01-05T09:29:11.509Z,72.28
2023-01-05T09:31:40.903Z,72.38
2023-01-05T09:34:08.668Z,72.45
2023-01-05T09:36:38.676Z,72.30
2023-01-05T09:39:07.157Z,72.67
2023-01-05T09:41:38.045Z,71.93
2023-01-05T09:44:08.971Z,72.40
2023-01-05T09:46:42.284Z,71.67
2023-01-05T09:49:15.208Z,71.79
2023-01-05T09:51:43.968Z,71.95
2023-01-05T09:54:16.711Z,71.70
2023-01-05T09:59:37.130Z,70.79
2023-01-05T10:02:17.338Z,70.95
2023-01-05T10:04:45.384Z,71.11
2023-01-05T10:07:21.662Z,70.66
2023-01-05T10:09:49.729Z,70.65
2023-01-05T10:12:41.301Z,70.88
2023-01-05T10:15:13.868Z,70.92
2023-01-05T10:17:44.858Z,71.00
2023-01-05T10:20:24.125Z,70.55
2023-01-05T10:23:04.363Z,70.44
2023-01-05T10:25:39.775Z,69.89
2023-01-05T10:28:24.483Z,69.35
2023-01-05T10:30:58.811Z,69.41
2023-01-05T10:33:52.020Z,69.72
2023-01-05T10:39:30.679Z,70.07
2023-01-05T10:42:04.307Z,70.17
2023-01-05T10:44:56.574Z,70.26
2023-01-05T10:47:26.612Z,70.30
2023-01-05T10:49:55.700Z,69.94
2023-01-05T10:52:23.881Z,69.68
2023-01-05T10:54:57.194Z,70.40
2023-01-05T10:57:41.038Z,71.25
2023-01-05T11:00:13.666Z,71.35
2023-01-05T11:02:44.072Z,70.69
2023-01-05T11:05:28.395Z,69.97
2023-01-05T11:07:58.470Z,69.58
2023-01-05T11:10:30.251Z,68.85
2023-01-05T11:13:04.534Z,67.75
2023-01-05T11:15:34.659Z,67.38
2023-01-05T11:18:03.823Z,67.95
2023-01-05T11:20:32.774Z,67.60
2023-01-05T11:23:00.373Z,67.73
2023-01-05T11:25:29.890Z,68.00
2023-01-05T11:28:12.237Z,68.20
2023-01-05T11:30:48.268Z,68.39
2023-01-05T11:33:25.699Z,67.69
2023-01-05T11:35:56.007Z,67.88
2023-01-05T11:38:26.312Z,67.51
2023-01-05T11:40:56.106Z,67.14
2023-01-05T11:43:25.590Z,67.41
2023-01-05T11:45:56.760Z,67.08
2023-01-05T11:48:27.447Z,66.27
2023-01-05T11:50:57.794Z,66.29
2023-01-05T11:53:36.405Z,65.83
2023-01-05T11:56:06.229Z,65.73
2023-01-05T11:58:35.342Z,65.45
2023-01-05T12:01:23.289Z,65.67
2023-01-05T12:04:36.550Z,64.94
2023-01-05T12:07:14.987Z,63.56
2023-01-05T12:09:49.715Z,64.01
2023-01-05T12:12:41.519Z,63.60
2023-01-05T12:15:35.605Z,62.05
2023-01-05T12:18:16.470Z,61.34
2023-01-05T12:20:57.531Z,61.38
2023-01-05T12:23:41.244Z,61.17
2023-01-05T12:26:19.982Z,61.80
2023-01-05T12:35:32.021Z,63.79
2023-01-05T12:38:15.107Z,64.66
2023-01-05T12:41:00.324Z,64.86
2023-01-05T12:43:46.493Z,63.99
2023-01-05T12:46:25.465Z,63.88
2023-01-05T12:48:57.047Z,63.88
2023-01-05T12:51:32.524Z,64.04
2023-01-05T12:54:06.481Z,64.51
2023-01-05T12:56:42.320Z,64.43
2023-01-05T12:59:18.219Z,63.94
2023-01-05T13:01:51.048Z,64.27
2023-01-05T13:04:41.502Z,64.13
2023-01-05T13:07:21.071Z,65.63
2023-01-05T13:09:56.131Z,64.89
2023-01-05T13:12:28.645Z,65.08
2023-01-05T13:15:07.453Z,64.70
2023-01-05T13:17:37.676Z,65.13
2023-01-05T13:20:17.507Z,63.35
2023-01-05T13:22:47.324Z,62.57
2023-01-05T13:25:19.189Z,62.33
2023-01-05T13:27:48.250Z,61.71
2023-01-05T13:30:23.424Z,62.26
2023-01-05T13:33:13.341Z,62.44
2023-01-05T13:35:50.928Z,63.31
2023-01-05T13:38:41.285Z,63.54
2023-01-05T13:41:26.328Z,64.38
2023-01-05T13:44:32.000Z,64.90
2023-01-05T13:47:45.307Z,65.21
2023-01-05T13:50:31.551Z,64.16
2023-01-05T13:53:15.331Z,65.43
2023-01-05T13:55:49.535Z,66.24
2023-01-05T14:01:11.483Z,66.57
2023-01-05T14:03:41.490Z,67.74
2023-01-05T14:06:19.348Z,67.66
2023-01-05T14:08:55.527Z,68.10
2023-01-05T14:11:24.784Z,68.33
2023-01-05T14:13:55.315Z,67.86
2023-01-05T14:16:52.795Z,67.80
2023-01-05T14:19:23.552Z,68.73
2023-01-05T14:22:36.925Z,68.68
2023-01-05T14:25:43.305Z,68.55
2023-01-05T14:28:40.935Z,69.22
2023-01-05T14:31:43.782Z,69.02
2023-01-05T14:34:18.196Z,69.72
2023-01-05T14:36:49.423Z,69.58
2023-01-05T14:39:26.603Z,69.49
2023-01-05T14:42:01.707Z,69.20
2023-01-05T14:44:34.596Z,69.08
2023-01-05T14:47:03.215Z,68.67
2023-01-05T14:49:36.621Z,68.84
2023-01-05T14:52:06.716Z,68.61
2023-01-05T14:55:21.803Z,68.85
2023-01-05T14:57:55.523Z,68.97
2023-01-05T15:00:38.619Z,69.38
2023-01-05T15:03:14.925Z,68.79
2023-01-05T15:05:53.143Z,68.74
2023-01-05T15:08:37.301Z,68.82
2023-01-05T15:11:36.932Z,68.36
2023-01-05T15:14:36.085Z,68.81
2023-01-05T15:17:27.494Z,68.46
2023-01-05T15:20:09.411Z,68.41
2023-01-05T15:22:56.556Z,68.21
2023-01-05T15:25:43.438Z,68.11
2023-01-05T15:28:48.995Z,68.10
2023-01-05T15:31:29.998Z,68.41
2023-01-05T15:34:07.440Z,68.30
2023-01-05T15:36:39.803Z,68.60
2023-01-05T15:39:25.165Z,69.00
2023-01-05T15:41:54.785Z,68.83
2023-01-05T15:44:23.337Z,68.93
2023-01-05T15:46:51.892Z,69.02
2023-01-05T15:49:24.226Z,68.79
2023-01-05T15:51:53.795Z,69.18
2023-01-05T15:54:25.670Z,69.21
2023-01-05T15:56:53.948Z,69.46
2023-01-05T15:59:32.123Z,69.77
2023-01-05T16:01:59.967Z,69.66
2023-01-05T16:04:28.580Z,69.76
2023-01-05T16:07:01.108Z,69.99
2023-01-05T16:09:33.623Z,70.38
2023-01-05T16:12:07.156Z,70.13
2023-01-05T16:14:38.320Z,70.19
2023-01-05T16:17:11.230Z,70.26
2023-01-05T16:19:44.119Z,70.32
2023-01-05T16:22:18.050Z,70.63
2023-01-05T16:24:58.427Z,70.57
2023-01-05T16:27:27.048Z,70.45
2023-01-05T16:29:54.618Z,70.86
2023-01-05T16:32:33.143Z,71.09
2023-01-05T16:35:23.514Z,71.35
2023-01-05T16:38:05.765Z,71.19
2023-01-05T16:40:35.600Z,71.68
2023-01-05T16:43:03.993Z,71.53
2023-01-05T16:45:34.044Z,71.64
2023-01-05T16:48:01.843Z,71.74
2023-01-05T16:50:55.720Z,71.96
2023-01-05T16:53:25.316Z,71.95
2023-01-05T16:55:57.112Z,72.16
2023-01-05T16:58:37.395Z,72.13
2023-01-05T17:01:23.472Z,72.59
2023-01-05T17:03:51.689Z,72.42
2023-01-05T17:06:24.811Z,73.23
2023-01-05T17:08:53.255Z,72.87
2023-01-05T17:11:22.434Z,72.84
2023-01-05T17:13:53.535Z,73.09
2023-01-05T17:16:22.387Z,73.04
2023-01-05T17:18:50.817Z,72.92
2023-01-05T17:21:20.656Z,72.81
2023-01-05T17:23:50.456Z,72.98
2023-01-05T17:26:22.890Z,73.20
2023-01-05T17:28:50.967Z,73.57
2023-01-05T17:31:18.614Z,73.58
2023-01-05T17:33:46.226Z,73.67
2023-01-05T17:38:47.434Z,74.13
2023-01-05T17:41:16.150Z,74.08
2023-01-05T17:43:46.324Z,74.49
2023-01-05T17:46:18.694Z,74.45
2023-01-05T17:48:46.569Z,75.08
2023-01-05T17:51:14.529Z,75.19
2023-01-05T17:53:42.213Z,75.83
2023-01-05T17:56:09.820Z,76.11
2023-01-05T17:58:37.685Z,76.46
2023-01-05T18:01:07.274Z,76.96
2023-01-05T18:03:34.891Z,77.63
2023-01-05T18:06:03.328Z,77.51
2023-01-05T18:08:31.031Z,78.20
2023-01-05T18:11:02.068Z,78.34
2023-01-05T18:13:29.830Z,78.24
2023-01-05T18:18:31.390Z,78.83
2023-01-05T18:21:00.966Z,79.02
2023-01-05T18:23:28.769Z,78.98
2023-01-05T18:25:56.350Z,78.94
2023-01-05T18:28:23.926Z,79.00
2023-01-05T18:30:51.533Z,79.03
2023-01-05T18:33:19.252Z,79.03
2023-01-05T18:35:50.714Z,79.02
2023-01-05T18:38:21.917Z,79.00
2023-01-05T18:40:50.425Z,79.22
2023-01-05T18:43:18.150Z,79.28
2023-01-05T18:45:45.705Z,79.53
2023-01-05T18:48:13.319Z,80.36
2023-01-05T18:50:42.891Z,80.78
2023-01-05T18:53:12.993Z,81.05
2023-01-05T18:55:41.540Z,81.14
2023-01-05T18:58:09.451Z,81.51
2023-01-05T19:00:39.070Z,81.75
2023-01-05T19:03:06.822Z,82.21
2023-01-05T19:05:34.810Z,82.91
2023-01-05T19:08:02.482Z,83.04
2023-01-05T19:10:32.888Z,83.16
2023-01-05T19:13:00.631Z,83.40
2023-01-05T19:15:28.276Z,84.20
2023-01-05T19:17:57.193Z,84.31
2023-01-05T19:20:24.818Z,85.00
2023-01-05T19:22:52.410Z,85.25
2023-01-05T19:25:20.054Z,85.21
2023-01-05T19:27:49.046Z,85.34
2023-01-05T19:30:19.945Z,85.30
2023-01-05T19:32:47.593Z,85.55
2023-01-05T19:35:15.311Z,85.55
2023-01-05T19:37:43.348Z,85.58
2023-01-05T19:40:12.228Z,85.72
2023-01-05T19:42:40.000Z,85.52
2023-01-05T19:45:10.411Z,85.54
2023-01-05T19:47:40.678Z,85.41
2023-01-05T19:50:10.032Z,85.62
2023-01-05T19:52:38.254Z,85.64
2023-01-05T19:55:06.911Z,85.67
2023-01-05T19:57:34.634Z,85.45
2023-01-05T20:00:02.286Z,85.43
2023-01-05T20:02:31.345Z,85.34
2023-01-05T20:04:59.408Z,85.52
2023-01-05T20:07:27.041Z,85.75
2023-01-05T20:09:54.706Z,85.76
2023-01-05T20:12:22.628Z,85.45
2023-01-05T20:14:50.401Z,85.60
2023-01-05T20:17:18.420Z,85.67
2023-01-05T20:19:47.781Z,86.25
2023-01-05T20:22:15.628Z,86.46
2023-01-05T20:24:45.364Z,86.41
2023-01-05T20:27:15.401Z,86.29
2023-01-05T20:29:43.932Z,86.31
2023-01-05T20:32:13.792Z,86.35
2023-01-05T20:34:42.899Z,86.56
2023-01-05T20:37:12.689Z,86.68
2023-01-05T20:39:42.633Z,86.48
2023-01-05T20:42:11.788Z,86.85
2023-01-05T20:44:42.470Z,87.02
2023-01-05T20:47:10.700Z,86.93
2023-01-05T20:49:40.229Z,87.28
2023-01-05T20:52:09.467Z,86.86
2023-01-05T20:54:39.160Z,86.64
2023-01-05T20:57:07.767Z,86.89
2023-01-05T20:59:38.579Z,86.63
2023-01-05T21:02:18.302Z,86.75
2023-01-05T21:04:51.246Z,86.40
2023-01-05T21:07:20.092Z,86.56
2023-01-05T21:09:50.320Z,87.06
2023-01-05T21:12:18.184Z,86.93
2023-01-05T21:14:45.818Z,86.84
2023-01-05T21:17:13.450Z,86.76
2023-01-05T21:19:41.051Z,86.98
2023-01-05T21:22:08.957Z,86.38
2023-01-05T21:24:37.159Z,86.27
2023-01-05T21:27:06.191Z,86.28
2023-01-05T21:29:33.946Z,86.29
2023-01-05T21:32:01.631Z,86.23
2023-01-05T21:34:29.239Z,86.21
2023-01-05T21:36:56.862Z,85.74
2023-01-05T21:39:28.268Z,86.00
2023-01-05T21:42:13.748Z,86.14
2023-01-05T21:44:42.733Z,86.28
2023-01-05T21:47:10.548Z,86.27
2023-01-05T21:49:38.182Z,86.45
2023-01-05T21:52:24.440Z,86.23
2023-01-05T21:55:09.727Z,86.17
2023-01-05T21:57:37.410Z,86.01
2023-01-05T22:00:08.567Z,85.98
2023-01-05T22:02:36.296Z,86.33
2023-01-05T22:05:04.025Z,86.22
2023-01-05T22:07:31.732Z,86.28
2023-01-05T22:09:59.471Z,85.84
2023-01-05T22:12:27.120Z,86.67
2023-01-05T22:14:54.702Z,86.57
2023-01-05T22:17:23.958Z,85.97
2023-01-05T22:19:53.342Z,86.32
2023-01-05T22:22:21.663Z,87.39
2023-01-05T22:24:49.656Z,86.10
2023-01-05T22:27:17.400Z,86.43
2023-01-05T22:29:44.939Z,87.22
2023-01-05T22:32:12.499Z,87.04
2023-01-05T22:34:43.735Z,87.16
2023-01-05T22:37:11.429Z,87.76
2023-01-05T22:39:39.132Z,87.41
2023-01-05T22:42:07.012Z,87.36
2023-01-05T22:44:34.785Z,87.97
2023-01-05T22:47:02.416Z,88.08
2023-01-05T22:49:30.560Z,87.97
2023-01-05T22:51:59.503Z,88.19
2023-01-05T22:54:27.046Z,87.60
2023-01-05T22:56:55.038Z,88.31
2023-01-05T22:59:22.657Z,88.63
2023-01-05T23:01:50.198Z,87.73
2023-01-05T23:04:19.234Z,87.02
2023-01-05T23:06:46.810Z,86.59
2023-01-05T23:09:16.975Z,86.93
2023-01-05T23:11:46.811Z,87.40
2023-01-05T23:14:17.344Z,87.42
2023-01-05T23:16:45.127Z,87.69
2023-01-05T23:19:13.371Z,87.31
2023-01-05T23:21:41.019Z,87.51
2023-01-05T23:24:09.675Z,88.11
2023-01-05T23:26:38.996Z,88.87
2023-01-05T23:29:06.672Z,88.65
2023-01-05T23:31:34.232Z,89.03
2023-01-05T23:34:01.788Z,89.55
2023-01-05T23:36:29.375Z,89.34
2023-01-05T23:38:57.252Z,89.53
2023-01-05T23:41:24.844Z,89.05
2023-01-05T23:43:53.947Z,89.30
2023-01-05T23:46:23.561Z,89.29
2023-01-05T23:48:52.364Z,88.84
2023-01-05T23:51:20.470Z,87.99
2023-01-05T23:53:49.929Z,88.40
2023-01-05T23:56:20.059Z,88.85
2023-01-05T23:58:47.869Z,90.65
